sensor_id;sensor_type;location;lat;lon;timestamp;temperature;humidity
68648;SHT31;55632;51.962;16.116;2023-04-26T00:03:09;4.83;69.27
68648;SHT31;55632;51.962;16.116;2023-04-26T00:08:12;4.79;69.47
68648;SHT31;55632;51.962;16.116;2023-04-26T00:13:13;4.76;69.71
68648;SHT31;55632;51.962;16.116;2023-04-26T00:18:14;4.76;69.80
68648;SHT31;55632;51.962;16.116;2023-04-26T00:23:16;4.71;69.95
68648;SHT31;55632;51.962;16.116;2023-04-26T00:28:20;4.71;70.01
68648;SHT31;55632;51.962;16.116;2023-04-26T00:33:21;4.64;70.08
68648;SHT31;55632;51.962;16.116;2023-04-26T00:38:22;4.64;70.14
68648;SHT31;55632;51.962;16.116;2023-04-26T00:43:22;4.52;70.33
68648;SHT31;55632;51.962;16.116;2023-04-26T00:48:24;4.47;70.39
68648;SHT31;55632;51.962;16.116;2023-04-26T00:53:25;4.42;70.57
68648;SHT31;55632;51.962;16.116;2023-04-26T00:58:27;4.38;70.72
68648;SHT31;55632;51.962;16.116;2023-04-26T01:03:28;4.38;70.92
68648;SHT31;55632;51.962;16.116;2023-04-26T01:08:29;4.30;71.02
68648;SHT31;55632;51.962;16.116;2023-04-26T01:13:31;4.30;71.17
68648;SHT31;55632;51.962;16.116;2023-04-26T01:18:33;4.30;71.26
68648;SHT31;55632;51.962;16.116;2023-04-26T01:23:35;4.24;71.39
68648;SHT31;55632;51.962;16.116;2023-04-26T01:28:36;4.21;71.52
68648;SHT31;55632;51.962;16.116;2023-04-26T01:33:38;4.14;71.66
68648;SHT31;55632;51.962;16.116;2023-04-26T01:38:39;4.09;71.78
68648;SHT31;55632;51.962;16.116;2023-04-26T01:43:41;4.06;71.96
68648;SHT31;55632;51.962;16.116;2023-04-26T01:48:42;4.02;72.19
68648;SHT31;55632;51.962;16.116;2023-04-26T01:53:44;3.97;72.33
68648;SHT31;55632;51.962;16.116;2023-04-26T01:58:45;3.92;72.51
68648;SHT31;55632;51.962;16.116;2023-04-26T02:03:49;3.92;72.68
68648;SHT31;55632;51.962;16.116;2023-04-26T02:08:53;3.92;72.84
68648;SHT31;55632;51.962;16.116;2023-04-26T02:13:55;3.89;72.92
68648;SHT31;55632;51.962;16.116;2023-04-26T02:18:57;3.86;73.03
68648;SHT31;55632;51.962;16.116;2023-04-26T02:24:03;3.85;73.09
68648;SHT31;55632;51.962;16.116;2023-04-26T02:29:08;3.81;73.19
68648;SHT31;55632;51.962;16.116;2023-04-26T02:40:15;3.67;73.41
68648;SHT31;55632;51.962;16.116;2023-04-26T02:45:16;3.62;73.65
68648;SHT31;55632;51.962;16.116;2023-04-26T02:50:19;3.57;73.67
68648;SHT31;55632;51.962;16.116;2023-04-26T02:55:21;3.51;73.92
68648;SHT31;55632;51.962;16.116;2023-04-26T03:00:22;3.48;74.12
68648;SHT31;55632;51.962;16.116;2023-04-26T03:05:24;3.48;74.33
68648;SHT31;55632;51.962;16.116;2023-04-26T03:10:26;3.44;74.46
68648;SHT31;55632;51.962;16.116;2023-04-26T03:15:27;3.38;74.64
68648;SHT31;55632;51.962;16.116;2023-04-26T03:20:28;3.31;74.96
68648;SHT31;55632;51.962;16.116;2023-04-26T03:25:29;3.28;74.99
68648;SHT31;55632;51.962;16.116;2023-04-26T03:30:30;3.26;75.20
68648;SHT31;55632;51.962;16.116;2023-04-26T03:35:31;3.22;75.61
68648;SHT31;55632;51.962;16.116;2023-04-26T03:40:32;3.19;75.62
68648;SHT31;55632;51.962;16.116;2023-04-26T03:45:33;3.20;75.92
68648;SHT31;55632;51.962;16.116;2023-04-26T03:50:34;3.19;75.89
68648;SHT31;55632;51.962;16.116;2023-04-26T03:55:35;3.19;76.03
68648;SHT31;55632;51.962;16.116;2023-04-26T04:00:38;3.16;76.24
68648;SHT31;55632;51.962;16.116;2023-04-26T04:05:39;3.19;76.37
68648;SHT31;55632;51.962;16.116;2023-04-26T04:10:41;3.31;76.66
68648;SHT31;55632;51.962;16.116;2023-04-26T04:15:45;3.61;76.66
68648;SHT31;55632;51.962;16.116;2023-04-26T04:20:47;3.95;76.41
68648;SHT31;55632;51.962;16.116;2023-04-26T04:25:48;4.29;76.31
68648;SHT31;55632;51.962;16.116;2023-04-26T04:30:51;4.62;75.60
68648;SHT31;55632;51.962;16.116;2023-04-26T04:35:52;4.96;75.27
68648;SHT31;55632;51.962;16.116;2023-04-26T04:40:53;5.32;74.67
68648;SHT31;55632;51.962;16.116;2023-04-26T04:45:57;5.65;74.07
68648;SHT31;55632;51.962;16.116;2023-04-26T04:50:58;5.94;73.45
68648;SHT31;55632;51.962;16.116;2023-04-26T04:55:59;6.21;72.66
68648;SHT31;55632;51.962;16.116;2023-04-26T05:01:04;6.43;71.78
68648;SHT31;55632;51.962;16.116;2023-04-26T05:06:18;6.65;71.33
68648;SHT31;55632;51.962;16.116;2023-04-26T05:11:19;6.81;70.39
68648;SHT31;55632;51.962;16.116;2023-04-26T05:16:21;6.95;70.24
68648;SHT31;55632;51.962;16.116;2023-04-26T05:21:22;7.19;69.56
68648;SHT31;55632;51.962;16.116;2023-04-26T05:26:24;7.28;68.27
68648;SHT31;55632;51.962;16.116;2023-04-26T05:31:27;7.33;67.93
68648;SHT31;55632;51.962;16.116;2023-04-26T05:36:54;7.36;67.64
68648;SHT31;55632;51.962;16.116;2023-04-26T05:41:55;7.40;67.16
68648;SHT31;55632;51.962;16.116;2023-04-26T05:46:56;7.46;67.04
68648;SHT31;55632;51.962;16.116;2023-04-26T05:51:59;7.55;66.74
68648;SHT31;55632;51.962;16.116;2023-04-26T05:57:01;7.64;66.64
68648;SHT31;55632;51.962;16.116;2023-04-26T06:02:02;7.73;66.26
68648;SHT31;55632;51.962;16.116;2023-04-26T06:07:04;7.81;66.02
68648;SHT31;55632;51.962;16.116;2023-04-26T06:12:07;7.85;65.49
68648;SHT31;55632;51.962;16.116;2023-04-26T06:17:11;7.92;65.29
68648;SHT31;55632;51.962;16.116;2023-04-26T06:22:12;8.02;65.28
68648;SHT31;55632;51.962;16.116;2023-04-26T06:27:13;8.13;64.50
68648;SHT31;55632;51.962;16.116;2023-04-26T06:32:20;8.26;64.54
68648;SHT31;55632;51.962;16.116;2023-04-26T06:37:21;8.42;64.24
68648;SHT31;55632;51.962;16.116;2023-04-26T06:42:22;8.50;63.60
68648;SHT31;55632;51.962;16.116;2023-04-26T06:47:42;8.65;63.35
68648;SHT31;55632;51.962;16.116;2023-04-26T06:52:43;8.77;63.24
68648;SHT31;55632;51.962;16.116;2023-04-26T06:57:43;8.82;62.59
68648;SHT31;55632;51.962;16.116;2023-04-26T07:02:44;8.92;62.31
68648;SHT31;55632;51.962;16.116;2023-04-26T07:07:45;9.05;62.53
68648;SHT31;55632;51.962;16.116;2023-04-26T07:12:46;9.24;61.36
68648;SHT31;55632;51.962;16.116;2023-04-26T07:17:47;9.33;60.67
68648;SHT31;55632;51.962;16.116;2023-04-26T07:22:48;9.30;60.27
68648;SHT31;55632;51.962;16.116;2023-04-26T07:27:48;9.43;60.29
68648;SHT31;55632;51.962;16.116;2023-04-26T07:32:51;9.41;58.96
68648;SHT31;55632;51.962;16.116;2023-04-26T07:37:52;9.39;59.53
68648;SHT31;55632;51.962;16.116;2023-04-26T07:42:53;9.37;60.17
68648;SHT31;55632;51.962;16.116;2023-04-26T07:47:54;9.47;60.15
68648;SHT31;55632;51.962;16.116;2023-04-26T07:52:55;9.58;59.46
68648;SHT31;55632;51.962;16.116;2023-04-26T07:57:56;9.62;58.58
68648;SHT31;55632;51.962;16.116;2023-04-26T08:02:57;9.68;58.67
68648;SHT31;55632;51.962;16.116;2023-04-26T08:07:58;9.77;56.98
68648;SHT31;55632;51.962;16.116;2023-04-26T08:13:00;9.74;57.01
68648;SHT31;55632;51.962;16.116;2023-04-26T08:18:02;9.70;55.74
68648;SHT31;55632;51.962;16.116;2023-04-26T08:23:04;9.86;55.72
68648;SHT31;55632;51.962;16.116;2023-04-26T08:28:04;9.95;54.26
68648;SHT31;55632;51.962;16.116;2023-04-26T08:33:08;9.95;54.37
68648;SHT31;55632;51.962;16.116;2023-04-26T08:38:11;10.01;53.97
68648;SHT31;55632;51.962;16.116;2023-04-26T08:43:13;10.20;52.80
68648;SHT31;55632;51.962;16.116;2023-04-26T08:48:15;10.30;51.72
68648;SHT31;55632;51.962;16.116;2023-04-26T08:53:17;10.34;51.89
68648;SHT31;55632;51.962;16.116;2023-04-26T08:58:18;10.45;51.83
68648;SHT31;55632;51.962;16.116;2023-04-26T09:03:22;10.51;51.20
68648;SHT31;55632;51.962;16.116;2023-04-26T09:08:23;10.55;50.06
68648;SHT31;55632;51.962;16.116;2023-04-26T09:13:27;10.53;50.74
68648;SHT31;55632;51.962;16.116;2023-04-26T09:18:29;10.55;48.95
68648;SHT31;55632;51.962;16.116;2023-04-26T09:23:31;10.61;50.22
68648;SHT31;55632;51.962;16.116;2023-04-26T09:28:32;10.67;49.07
68648;SHT31;55632;51.962;16.116;2023-04-26T09:33:32;10.45;48.05
68648;SHT31;55632;51.962;16.116;2023-04-26T09:38:41;10.19;47.44
68648;SHT31;55632;51.962;16.116;2023-04-26T09:43:42;10.30;48.89
68648;SHT31;55632;51.962;16.116;2023-04-26T09:48:43;10.38;48.36
68648;SHT31;55632;51.962;16.116;2023-04-26T09:53:48;10.48;48.39
68648;SHT31;55632;51.962;16.116;2023-04-26T09:58:58;10.54;46.22
68648;SHT31;55632;51.962;16.116;2023-04-26T10:04:00;10.47;46.20
68648;SHT31;55632;51.962;16.116;2023-04-26T10:09:01;10.37;47.54
68648;SHT31;55632;51.962;16.116;2023-04-26T10:14:03;10.51;48.04
68648;SHT31;55632;51.962;16.116;2023-04-26T10:19:04;10.83;46.98
68648;SHT31;55632;51.962;16.116;2023-04-26T10:24:06;10.92;45.40
68648;SHT31;55632;51.962;16.116;2023-04-26T10:29:07;10.95;45.61
68648;SHT31;55632;51.962;16.116;2023-04-26T10:34:18;10.91;45.79
68648;SHT31;55632;51.962;16.116;2023-04-26T10:39:20;10.92;44.89
68648;SHT31;55632;51.962;16.116;2023-04-26T10:44:40;11.05;45.52
68648;SHT31;55632;51.962;16.116;2023-04-26T10:49:45;11.02;44.63
68648;SHT31;55632;51.962;16.116;2023-04-26T11:05:10;10.68;44.97
68648;SHT31;55632;51.962;16.116;2023-04-26T11:10:21;10.75;45.05
68648;SHT31;55632;51.962;16.116;2023-04-26T11:15:23;10.92;45.44
68648;SHT31;55632;51.962;16.116;2023-04-26T11:20:28;10.93;45.40
68648;SHT31;55632;51.962;16.116;2023-04-26T11:25:30;10.86;45.10
68648;SHT31;55632;51.962;16.116;2023-04-26T11:30:31;10.82;45.59
68648;SHT31;55632;51.962;16.116;2023-04-26T11:35:34;10.80;45.98
68648;SHT31;55632;51.962;16.116;2023-04-26T11:40:35;10.80;44.97
68648;SHT31;55632;51.962;16.116;2023-04-26T11:45:37;10.79;45.59
68648;SHT31;55632;51.962;16.116;2023-04-26T11:50:38;10.85;44.85
68648;SHT31;55632;51.962;16.116;2023-04-26T11:55:39;10.97;45.21
68648;SHT31;55632;51.962;16.116;2023-04-26T12:00:57;11.16;45.66
68648;SHT31;55632;51.962;16.116;2023-04-26T12:05:58;11.30;45.56
68648;SHT31;55632;51.962;16.116;2023-04-26T12:11:03;11.24;45.72
68648;SHT31;55632;51.962;16.116;2023-04-26T12:16:07;11.07;45.23
68648;SHT31;55632;51.962;16.116;2023-04-26T12:21:08;10.88;44.43
68648;SHT31;55632;51.962;16.116;2023-04-26T12:26:09;10.76;44.25
68648;SHT31;55632;51.962;16.116;2023-04-26T12:31:11;10.85;44.26
68648;SHT31;55632;51.962;16.116;2023-04-26T12:36:12;11.17;44.17
68648;SHT31;55632;51.962;16.116;2023-04-26T12:41:13;11.50;43.69
68648;SHT31;55632;51.962;16.116;2023-04-26T12:46:14;11.71;44.06
68648;SHT31;55632;51.962;16.116;2023-04-26T12:51:15;11.64;43.69
68648;SHT31;55632;51.962;16.116;2023-04-26T12:56:16;11.47;44.18
68648;SHT31;55632;51.962;16.116;2023-04-26T13:01:17;11.31;45.02
68648;SHT31;55632;51.962;16.116;2023-04-26T13:06:18;11.10;45.65
68648;SHT31;55632;51.962;16.116;2023-04-26T13:11:19;10.89;47.56
68648;SHT31;55632;51.962;16.116;2023-04-26T13:16:20;10.69;48.50
68648;SHT31;55632;51.962;16.116;2023-04-26T13:21:21;10.68;49.41
68648;SHT31;55632;51.962;16.116;2023-04-26T13:26:22;10.78;49.02
68648;SHT31;55632;51.962;16.116;2023-04-26T13:31:23;10.89;48.37
68648;SHT31;55632;51.962;16.116;2023-04-26T13:36:24;11.14;48.07
68648;SHT31;55632;51.962;16.116;2023-04-26T13:41:25;11.41;46.33
68648;SHT31;55632;51.962;16.116;2023-04-26T13:46:29;11.61;45.50
68648;SHT31;55632;51.962;16.116;2023-04-26T13:51:32;11.69;44.80
68648;SHT31;55632;51.962;16.116;2023-04-26T13:56:35;11.71;43.04
68648;SHT31;55632;51.962;16.116;2023-04-26T14:01:35;11.65;41.57
68648;SHT31;55632;51.962;16.116;2023-04-26T14:06:37;11.69;41.78
68648;SHT31;55632;51.962;16.116;2023-04-26T14:11:38;11.69;41.56
68648;SHT31;55632;51.962;16.116;2023-04-26T14:16:41;11.64;41.32
68648;SHT31;55632;51.962;16.116;2023-04-26T14:21:42;11.48;41.04
68648;SHT31;55632;51.962;16.116;2023-04-26T14:26:43;11.31;42.03
68648;SHT31;55632;51.962;16.116;2023-04-26T14:31:44;11.19;42.80
68648;SHT31;55632;51.962;16.116;2023-04-26T14:36:45;11.06;43.93
68648;SHT31;55632;51.962;16.116;2023-04-26T14:41:45;10.99;45.13
68648;SHT31;55632;51.962;16.116;2023-04-26T14:46:46;10.99;45.31
68648;SHT31;55632;51.962;16.116;2023-04-26T14:51:47;10.96;45.41
68648;SHT31;55632;51.962;16.116;2023-04-26T14:56:48;10.97;45.14
68648;SHT31;55632;51.962;16.116;2023-04-26T15:01:48;11.00;45.01
68648;SHT31;55632;51.962;16.116;2023-04-26T15:06:52;11.02;45.15
68648;SHT31;55632;51.962;16.116;2023-04-26T15:11:53;11.05;44.87
68648;SHT31;55632;51.962;16.116;2023-04-26T15:16:54;11.06;44.53
68648;SHT31;55632;51.962;16.116;2023-04-26T15:21:55;11.13;44.67
68648;SHT31;55632;51.962;16.116;2023-04-26T15:26:56;11.14;44.36
68648;SHT31;55632;51.962;16.116;2023-04-26T15:31:57;11.12;44.96
68648;SHT31;55632;51.962;16.116;2023-04-26T15:36:58;11.02;44.39
68648;SHT31;55632;51.962;16.116;2023-04-26T15:41:59;10.95;44.72
68648;SHT31;55632;51.962;16.116;2023-04-26T15:47:00;10.93;44.78
68648;SHT31;55632;51.962;16.116;2023-04-26T15:52:01;10.91;45.16
68648;SHT31;55632;51.962;16.116;2023-04-26T15:57:02;10.97;45.27
68648;SHT31;55632;51.962;16.116;2023-04-26T16:02:03;11.00;45.92
68648;SHT31;55632;51.962;16.116;2023-04-26T16:07:05;11.09;46.24
68648;SHT31;55632;51.962;16.116;2023-04-26T16:12:06;11.10;46.01
68648;SHT31;55632;51.962;16.116;2023-04-26T16:17:07;11.05;45.61
68648;SHT31;55632;51.962;16.116;2023-04-26T16:22:08;10.91;46.04
68648;SHT31;55632;51.962;16.116;2023-04-26T16:27:09;10.83;46.50
68648;SHT31;55632;51.962;16.116;2023-04-26T16:32:11;10.69;46.58
68648;SHT31;55632;51.962;16.116;2023-04-26T16:37:12;10.53;46.92
68648;SHT31;55632;51.962;16.116;2023-04-26T16:42:16;10.47;47.30
68648;SHT31;55632;51.962;16.116;2023-04-26T16:47:20;10.43;47.27
68648;SHT31;55632;51.962;16.116;2023-04-26T16:52:21;10.36;47.37
68648;SHT31;55632;51.962;16.116;2023-04-26T16:57:23;10.24;47.37
68648;SHT31;55632;51.962;16.116;2023-04-26T17:02:23;10.13;47.88
68648;SHT31;55632;51.962;16.116;2023-04-26T17:07:27;10.02;48.02
68648;SHT31;55632;51.962;16.116;2023-04-26T17:12:28;9.89;48.40
68648;SHT31;55632;51.962;16.116;2023-04-26T17:17:29;9.78;48.73
68648;SHT31;55632;51.962;16.116;2023-04-26T17:22:31;9.71;49.27
68648;SHT31;55632;51.962;16.116;2023-04-26T17:27:31;9.68;49.75
68648;SHT31;55632;51.962;16.116;2023-04-26T17:32:33;9.68;50.25
68648;SHT31;55632;51.962;16.116;2023-04-26T17:37:35;9.64;50.50
68648;SHT31;55632;51.962;16.116;2023-04-26T17:42:35;9.61;50.41
68648;SHT31;55632;51.962;16.116;2023-04-26T17:47:36;9.55;50.52
68648;SHT31;55632;51.962;16.116;2023-04-26T17:52:38;9.47;50.57
68648;SHT31;55632;51.962;16.116;2023-04-26T17:57:39;9.33;50.71
68648;SHT31;55632;51.962;16.116;2023-04-26T18:02:40;9.19;50.60
68648;SHT31;55632;51.962;16.116;2023-04-26T18:07:42;9.02;50.74
68648;SHT31;55632;51.962;16.116;2023-04-26T18:12:44;8.93;50.89
68648;SHT31;55632;51.962;16.116;2023-04-26T18:17:49;8.84;51.17
68648;SHT31;55632;51.962;16.116;2023-04-26T18:22:50;8.77;51.38
68648;SHT31;55632;51.962;16.116;2023-04-26T18:27:51;8.65;51.66
68648;SHT31;55632;51.962;16.116;2023-04-26T18:32:53;8.59;52.04
68648;SHT31;55632;51.962;16.116;2023-04-26T18:37:54;8.50;52.25
68648;SHT31;55632;51.962;16.116;2023-04-26T18:42:59;8.36;52.49
68648;SHT31;55632;51.962;16.116;2023-04-26T18:48:00;8.22;52.73
68648;SHT31;55632;51.962;16.116;2023-04-26T18:53:01;8.08;53.11
68648;SHT31;55632;51.962;16.116;2023-04-26T18:58:02;7.94;53.47
68648;SHT31;55632;51.962;16.116;2023-04-26T19:03:06;7.83;53.70
68648;SHT31;55632;51.962;16.116;2023-04-26T19:08:07;7.70;53.98
68648;SHT31;55632;51.962;16.116;2023-04-26T19:13:08;7.53;54.28
68648;SHT31;55632;51.962;16.116;2023-04-26T19:18:10;7.42;54.64
68648;SHT31;55632;51.962;16.116;2023-04-26T19:23:11;7.29;55.01
68648;SHT31;55632;51.962;16.116;2023-04-26T19:28:12;7.12;55.46
68648;SHT31;55632;51.962;16.116;2023-04-26T19:33:19;6.97;55.68
68648;SHT31;55632;51.962;16.116;2023-04-26T19:38:20;6.79;56.01
68648;SHT31;55632;51.962;16.116;2023-04-26T19:43:22;6.65;56.38
68648;SHT31;55632;51.962;16.116;2023-04-26T19:48:26;6.52;56.67
68648;SHT31;55632;51.962;16.116;2023-04-26T19:53:28;6.43;57.18
68648;SHT31;55632;51.962;16.116;2023-04-26T19:58:29;6.26;57.60
68648;SHT31;55632;51.962;16.116;2023-04-26T20:03:33;6.15;57.88
68648;SHT31;55632;51.962;16.116;2023-04-26T20:08:35;6.03;58.14
68648;SHT31;55632;51.962;16.116;2023-04-26T20:13:36;5.90;58.43
68648;SHT31;55632;51.962;16.116;2023-04-26T20:18:40;5.77;58.79
68648;SHT31;55632;51.962;16.116;2023-04-26T20:23:42;5.66;59.22
68648;SHT31;55632;51.962;16.116;2023-04-26T20:28:43;5.54;59.61
68648;SHT31;55632;51.962;16.116;2023-04-26T20:33:45;5.42;60.00
68648;SHT31;55632;51.962;16.116;2023-04-26T20:38:47;5.32;60.37
68648;SHT31;55632;51.962;16.116;2023-04-26T20:43:51;5.23;60.83
68648;SHT31;55632;51.962;16.116;2023-04-26T20:48:52;5.10;61.27
68648;SHT31;55632;51.962;16.116;2023-04-26T20:53:53;5.01;61.67
68648;SHT31;55632;51.962;16.116;2023-04-26T20:58:56;4.94;62.11
68648;SHT31;55632;51.962;16.116;2023-04-26T21:04:00;4.92;62.47
68648;SHT31;55632;51.962;16.116;2023-04-26T21:09:01;4.89;62.93
68648;SHT31;55632;51.962;16.116;2023-04-26T21:14:03;4.87;63.32
68648;SHT31;55632;51.962;16.116;2023-04-26T21:19:05;4.87;63.71
68648;SHT31;55632;51.962;16.116;2023-04-26T21:24:06;4.87;64.07
68648;SHT31;55632;51.962;16.116;2023-04-26T21:29:07;4.86;64.33
68648;SHT31;55632;51.962;16.116;2023-04-26T21:34:08;4.87;64.57
68648;SHT31;55632;51.962;16.116;2023-04-26T21:39:09;4.89;64.85
68648;SHT31;55632;51.962;16.116;2023-04-26T21:44:11;4.86;65.08
68648;SHT31;55632;51.962;16.116;2023-04-26T21:49:12;4.87;65.31
68648;SHT31;55632;51.962;16.116;2023-04-26T21:54:13;4.85;65.57
68648;SHT31;55632;51.962;16.116;2023-04-26T21:59:17;4.85;65.78
68648;SHT31;55632;51.962;16.116;2023-04-26T22:04:21;4.85;65.92
68648;SHT31;55632;51.962;16.116;2023-04-26T22:09:23;4.80;66.11
68648;SHT31;55632;51.962;16.116;2023-04-26T22:14:24;4.79;66.24
68648;SHT31;55632;51.962;16.116;2023-04-26T22:19:26;4.79;66.43
68648;SHT31;55632;51.962;16.116;2023-04-26T22:24:27;4.76;66.72
68648;SHT31;55632;51.962;16.116;2023-04-26T22:29:29;4.76;66.99
68648;SHT31;55632;51.962;16.116;2023-04-26T22:34:30;4.75;67.20
68648;SHT31;55632;51.962;16.116;2023-04-26T22:39:31;4.73;67.38
68648;SHT31;55632;51.962;16.116;2023-04-26T22:44:32;4.71;67.45
68648;SHT31;55632;51.962;16.116;2023-04-26T22:49:33;4.72;67.60
68648;SHT31;55632;51.962;16.116;2023-04-26T22:54:34;4.72;67.72
68648;SHT31;55632;51.962;16.116;2023-04-26T22:59:35;4.69;67.86
68648;SHT31;55632;51.962;16.116;2023-04-26T23:04:39;4.62;68.15
68648;SHT31;55632;51.962;16.116;2023-04-26T23:09:42;4.61;68.14
68648;SHT31;55632;51.962;16.116;2023-04-26T23:14:43;4.54;68.41
68648;SHT31;55632;51.962;16.116;2023-04-26T23:19:44;4.51;68.65
68648;SHT31;55632;51.962;16.116;2023-04-26T23:24:45;4.47;68.57
68648;SHT31;55632;51.962;16.116;2023-04-26T23:29:48;4.45;68.68
68648;SHT31;55632;51.962;16.116;2023-04-26T23:34:52;4.42;68.85
68648;SHT31;55632;51.962;16.116;2023-04-26T23:39:53;4.40;68.93
68648;SHT31;55632;51.962;16.116;2023-04-26T23:44:53;4.36;69.20
68648;SHT31;55632;51.962;16.116;2023-04-26T23:49:55;4.30;69.13
68648;SHT31;55632;51.962;16.116;2023-04-26T23:54:56;4.27;69.25
68648;SHT31;55632;51.962;16.116;2023-04-26T23:59:57;4.17;69.40
